Nunam Iqua, Alaska
Current Conditions -  °F | °C
As of 3:16 AM on Friday 24 Oct 2014 (Local Time) from PAEM Reporting Station
Clear Clear  
Wind Chill: 21°   Ceiling: Unl
Heat Index: 28°   Visibility: 10mi
Dew Point: 25°   Wind: 7mph
Humidity: 86%   Direction: 200°SSW
Pressure: 29.78"   Gusts: NA
Location:  62.5092°N, 164.453°W
Report Text: PAEM 241116Z 20006KT 10SM CLR M02/M04 A2978 RMK AO1
Loading
Personal Weather Stations






























Interactive Weather Map
Tropical Storm Tracking
New forecast layout! Learn more

10-Day Weather Forecast

Advertisements
Track Severe Weather on mobile